sensor_id;sensor_type;location;lat;lon;timestamp;pressure;altitude;pressure_sealevel;temperature;humidity
49451;BME280;35336;48.400;10.886;2023-06-14T00:00:06;95787.13;;;14.41;56.84
49451;BME280;35336;48.400;10.886;2023-06-14T00:00:22;95787.38;;;14.40;57.32
49451;BME280;35336;48.400;10.886;2023-06-14T00:00:37;95789.47;;;14.38;56.98
49451;BME280;35336;48.400;10.886;2023-06-14T00:00:52;95786.19;;;14.36;57.46
49451;BME280;35336;48.400;10.886;2023-06-14T00:01:13;95788.88;;;14.36;57.47
49451;BME280;35336;48.400;10.886;2023-06-14T00:01:29;95786.69;;;14.33;57.82
49451;BME280;35336;48.400;10.886;2023-06-14T00:01:44;95789.59;;;14.31;57.98
49451;BME280;35336;48.400;10.886;2023-06-14T00:02:04;95786.94;;;14.31;57.97
49451;BME280;35336;48.400;10.886;2023-06-14T00:02:19;95785.28;;;14.30;58.06
49451;BME280;35336;48.400;10.886;2023-06-14T00:02:35;95780.16;;;14.28;58.34
49451;BME280;35336;48.400;10.886;2023-06-14T00:02:50;95790.66;;;14.30;58.25
49451;BME280;35336;48.400;10.886;2023-06-14T00:03:05;95768.72;;;14.21;58.23
49451;BME280;35336;48.400;10.886;2023-06-14T00:03:21;95781.31;;;14.33;58.22
49451;BME280;35336;48.400;10.886;2023-06-14T00:03:39;95789.38;;;14.33;58.27
49451;BME280;35336;48.400;10.886;2023-06-14T00:03:56;95786.09;;;14.30;58.32
49451;BME280;35336;48.400;10.886;2023-06-14T00:04:12;95786.09;;;14.30;58.50
49451;BME280;35336;48.400;10.886;2023-06-14T00:04:27;95782.38;;;14.32;58.29
49451;BME280;35336;48.400;10.886;2023-06-14T00:04:44;95782.38;;;14.32;58.50
49451;BME280;35336;48.400;10.886;2023-06-14T00:05:00;95787.97;;;14.30;58.29
49451;BME280;35336;48.400;10.886;2023-06-14T00:05:15;95783.66;;;14.29;58.69
49451;BME280;35336;48.400;10.886;2023-06-14T00:05:30;95782.25;;;14.26;58.67
49451;BME280;35336;48.400;10.886;2023-06-14T00:05:46;95766.53;;;14.18;58.50
49451;BME280;35336;48.400;10.886;2023-06-14T00:06:03;95785.16;;;14.25;58.23
49451;BME280;35336;48.400;10.886;2023-06-14T00:06:19;95776.19;;;14.19;58.51
49451;BME280;35336;48.400;10.886;2023-06-14T00:06:36;95788.19;;;14.28;58.26
49451;BME280;35336;48.400;10.886;2023-06-14T00:06:51;95777.34;;;14.23;58.16
49451;BME280;35336;48.400;10.886;2023-06-14T00:07:07;95780.38;;;14.27;58.54
49451;BME280;35336;48.400;10.886;2023-06-14T00:07:36;95787.38;;;14.28;58.20
49451;BME280;35336;48.400;10.886;2023-06-14T00:07:54;95788.91;;;14.24;58.58
49451;BME280;35336;48.400;10.886;2023-06-14T00:08:14;95782.97;;;14.22;58.52
49451;BME280;35336;48.400;10.886;2023-06-14T00:08:29;95784.25;;;14.19;58.46
49451;BME280;35336;48.400;10.886;2023-06-14T00:08:44;95780.72;;;14.19;58.41
49451;BME280;35336;48.400;10.886;2023-06-14T00:09:02;95775.03;;;14.15;58.81
49451;BME280;35336;48.400;10.886;2023-06-14T00:09:18;95777.94;;;14.13;58.43
49451;BME280;35336;48.400;10.886;2023-06-14T00:09:33;95792.03;;;14.21;58.16
49451;BME280;35336;48.400;10.886;2023-06-14T00:09:48;95779.56;;;14.14;58.59
49451;BME280;35336;48.400;10.886;2023-06-14T00:10:04;95785.63;;;14.22;58.36
49451;BME280;35336;48.400;10.886;2023-06-14T00:10:24;95781.22;;;14.16;58.36
49451;BME280;35336;48.400;10.886;2023-06-14T00:10:39;95779.44;;;14.21;58.19
49451;BME280;35336;48.400;10.886;2023-06-14T00:10:55;95772.94;;;14.17;58.36
49451;BME280;35336;48.400;10.886;2023-06-14T00:11:10;95797.75;;;14.24;58.31
49451;BME280;35336;48.400;10.886;2023-06-14T00:11:28;95785.88;;;14.20;58.81
49451;BME280;35336;48.400;10.886;2023-06-14T00:11:43;95784.25;;;14.19;58.93
49451;BME280;35336;48.400;10.886;2023-06-14T00:11:59;95771.44;;;14.09;58.58
49451;BME280;35336;48.400;10.886;2023-06-14T00:12:16;95775.25;;;14.13;58.62
49451;BME280;35336;48.400;10.886;2023-06-14T00:12:34;95783.06;;;14.15;59.13
49451;BME280;35336;48.400;10.886;2023-06-14T00:12:52;95784.25;;;14.19;58.87
49451;BME280;35336;48.400;10.886;2023-06-14T00:13:09;95780.63;;;14.13;59.13
49451;BME280;35336;48.400;10.886;2023-06-14T00:13:25;95788.22;;;14.17;59.00
49451;BME280;35336;48.400;10.886;2023-06-14T00:13:43;95783.06;;;14.15;59.18
49451;BME280;35336;48.400;10.886;2023-06-14T00:14:00;95786.69;;;14.21;59.03
49451;BME280;35336;48.400;10.886;2023-06-14T00:14:16;95787.47;;;14.21;58.79
49451;BME280;35336;48.400;10.886;2023-06-14T00:14:31;95789.97;;;14.23;58.94
49451;BME280;35336;48.400;10.886;2023-06-14T00:14:46;95786.22;;;14.24;58.84
49451;BME280;35336;48.400;10.886;2023-06-14T00:15:04;95778.88;;;14.19;58.97
49451;BME280;35336;48.400;10.886;2023-06-14T00:15:20;95784.34;;;14.24;59.05
49451;BME280;35336;48.400;10.886;2023-06-14T00:15:37;95784.81;;;14.21;59.29
49451;BME280;35336;48.400;10.886;2023-06-14T00:15:53;95787.47;;;14.21;59.30
49451;BME280;35336;48.400;10.886;2023-06-14T00:16:11;95781.06;;;14.22;59.13
49451;BME280;35336;48.400;10.886;2023-06-14T00:16:26;95774.47;;;14.13;59.19
49451;BME280;35336;48.400;10.886;2023-06-14T00:16:41;95779.94;;;14.18;59.13
49451;BME280;35336;48.400;10.886;2023-06-14T00:16:59;95778.06;;;14.19;59.25
49451;BME280;35336;48.400;10.886;2023-06-14T00:17:14;95786.34;;;14.17;59.73
49451;BME280;35336;48.400;10.886;2023-06-14T00:17:32;95783.06;;;14.15;59.29
49451;BME280;35336;48.400;10.886;2023-06-14T00:17:47;95779.81;;;14.13;59.71
49451;BME280;35336;48.400;10.886;2023-06-14T00:18:03;95779.56;;;14.14;59.68
49451;BME280;35336;48.400;10.886;2023-06-14T00:18:18;95789.59;;;14.19;59.33
49451;BME280;35336;48.400;10.886;2023-06-14T00:18:36;95786.94;;;14.19;59.45
49451;BME280;35336;48.400;10.886;2023-06-14T00:18:53;95786.94;;;14.19;59.45
49451;BME280;35336;48.400;10.886;2023-06-14T00:19:09;95775.25;;;14.13;59.30
49451;BME280;35336;48.400;10.886;2023-06-14T00:19:28;95790.88;;;14.17;59.63
49451;BME280;35336;48.400;10.886;2023-06-14T00:19:45;95782.00;;;14.16;59.46
49451;BME280;35336;48.400;10.886;2023-06-14T00:20:02;95783.31;;;14.13;59.48
49451;BME280;35336;48.400;10.886;2023-06-14T00:20:18;95782.50;;;14.13;59.75
49451;BME280;35336;48.400;10.886;2023-06-14T00:20:33;95779.47;;;14.09;59.86
49451;BME280;35336;48.400;10.886;2023-06-14T00:20:49;95784.59;;;14.11;59.74
49451;BME280;35336;48.400;10.886;2023-06-14T00:21:05;95782.72;;;14.11;59.73
49451;BME280;35336;48.400;10.886;2023-06-14T00:21:22;95776.44;;;14.06;59.76
49451;BME280;35336;48.400;10.886;2023-06-14T00:21:38;95778.63;;;14.09;59.85
49451;BME280;35336;48.400;10.886;2023-06-14T00:21:53;95781.31;;;14.09;59.72
49451;BME280;35336;48.400;10.886;2023-06-14T00:22:08;95785.38;;;14.11;59.91
49451;BME280;35336;48.400;10.886;2023-06-14T00:22:27;95780.72;;;14.07;59.57
49451;BME280;35336;48.400;10.886;2023-06-14T00:22:45;95776.88;;;14.03;59.88
49451;BME280;35336;48.400;10.886;2023-06-14T00:23:03;95787.84;;;14.01;59.55
49451;BME280;35336;48.400;10.886;2023-06-14T00:23:18;95780.84;;;14.00;59.73
49451;BME280;35336;48.400;10.886;2023-06-14T00:23:33;95774.91;;;13.98;60.01
49451;BME280;35336;48.400;10.886;2023-06-14T00:23:49;95782.47;;;14.01;59.58
49451;BME280;35336;48.400;10.886;2023-06-14T00:24:07;95788.41;;;14.03;59.42
49451;BME280;35336;48.400;10.886;2023-06-14T00:24:22;95767.91;;;13.97;59.57
49451;BME280;35336;48.400;10.886;2023-06-14T00:24:38;95780.59;;;14.02;59.85
49451;BME280;35336;48.400;10.886;2023-06-14T00:24:55;95781.66;;;14.01;59.99
49451;BME280;35336;48.400;10.886;2023-06-14T00:25:13;95782.13;;;13.97;59.87
49451;BME280;35336;48.400;10.886;2023-06-14T00:25:28;95782.00;;;13.92;59.99
49451;BME280;35336;48.400;10.886;2023-06-14T00:25:44;95768.81;;;13.79;60.06
49451;BME280;35336;48.400;10.886;2023-06-14T00:25:59;95781.75;;;13.82;60.85
49451;BME280;35336;48.400;10.886;2023-06-14T00:26:16;95777.44;;;13.81;60.89
49451;BME280;35336;48.400;10.886;2023-06-14T00:26:32;95777.69;;;13.79;60.96
49451;BME280;35336;48.400;10.886;2023-06-14T00:26:47;95780.56;;;13.78;61.23
49451;BME280;35336;48.400;10.886;2023-06-14T00:27:02;95778.94;;;13.77;60.65
49451;BME280;35336;48.400;10.886;2023-06-14T00:27:18;95781.16;;;13.80;60.55
49451;BME280;35336;48.400;10.886;2023-06-14T00:27:35;95771.25;;;13.80;60.63
49451;BME280;35336;48.400;10.886;2023-06-14T00:27:54;95784.78;;;13.86;60.50
49451;BME280;35336;48.400;10.886;2023-06-14T00:28:11;95770.22;;;13.81;60.71
49451;BME280;35336;48.400;10.886;2023-06-14T00:28:26;95766.50;;;13.82;60.60
49451;BME280;35336;48.400;10.886;2023-06-14T00:28:42;95779.31;;;13.92;60.39
49451;BME280;35336;48.400;10.886;2023-06-14T00:28:57;95786.09;;;13.95;60.25
49451;BME280;35336;48.400;10.886;2023-06-14T00:29:14;95786.91;;;13.95;60.53
49451;BME280;35336;48.400;10.886;2023-06-14T00:29:35;95784.56;;;13.99;60.51
49451;BME280;35336;48.400;10.886;2023-06-14T00:29:50;95784.34;;;14.01;60.62
49451;BME280;35336;48.400;10.886;2023-06-14T00:30:06;95783.78;;;13.98;60.58
49451;BME280;35336;48.400;10.886;2023-06-14T00:30:24;95782.13;;;13.97;60.48
49451;BME280;35336;48.400;10.886;2023-06-14T00:30:40;95771.06;;;13.94;60.00
49451;BME280;35336;48.400;10.886;2023-06-14T00:30:55;95780.25;;;13.98;60.43
49451;BME280;35336;48.400;10.886;2023-06-14T00:31:10;95784.13;;;14.02;60.18
49451;BME280;35336;48.400;10.886;2023-06-14T00:31:26;95780.03;;;14.00;60.34
49451;BME280;35336;48.400;10.886;2023-06-14T00:31:41;95781.09;;;13.98;60.60
49451;BME280;35336;48.400;10.886;2023-06-14T00:31:56;95782.94;;;13.98;60.58
49451;BME280;35336;48.400;10.886;2023-06-14T00:32:12;95774.78;;;13.93;60.65
49451;BME280;35336;48.400;10.886;2023-06-14T00:32:27;95784.22;;;13.95;60.59
49451;BME280;35336;48.400;10.886;2023-06-14T00:32:43;95789.59;;;13.95;60.69
49451;BME280;35336;48.400;10.886;2023-06-14T00:32:59;95786.31;;;13.93;60.71
49451;BME280;35336;48.400;10.886;2023-06-14T00:33:14;95779.56;;;13.91;60.80
49451;BME280;35336;48.400;10.886;2023-06-14T00:33:30;95780.94;;;13.93;60.62
49451;BME280;35336;48.400;10.886;2023-06-14T00:33:45;95784.56;;;13.99;60.89
49451;BME280;35336;48.400;10.886;2023-06-14T00:34:00;95780.50;;;13.96;60.65
49451;BME280;35336;48.400;10.886;2023-06-14T00:34:16;95782.13;;;13.97;61.10
49451;BME280;35336;48.400;10.886;2023-06-14T00:34:31;95785.03;;;13.96;60.73
49451;BME280;35336;48.400;10.886;2023-06-14T00:34:46;95778.28;;;13.93;61.26
49451;BME280;35336;48.400;10.886;2023-06-14T00:35:04;95785.75;;;13.91;61.22
49451;BME280;35336;48.400;10.886;2023-06-14T00:35:24;95789.47;;;13.90;61.90
49451;BME280;35336;48.400;10.886;2023-06-14T00:35:39;95787.22;;;13.87;61.72
49451;BME280;35336;48.400;10.886;2023-06-14T00:35:54;95772.53;;;13.78;61.79
49451;BME280;35336;48.400;10.886;2023-06-14T00:36:17;95776.97;;;13.84;62.22
49451;BME280;35336;48.400;10.886;2023-06-14T00:36:32;95783.97;;;13.85;62.16
49451;BME280;35336;48.400;10.886;2023-06-14T00:36:47;95778.59;;;13.85;62.26
49451;BME280;35336;48.400;10.886;2023-06-14T00:37:03;95782.81;;;13.81;62.17
49451;BME280;35336;48.400;10.886;2023-06-14T00:37:20;95780.94;;;13.81;62.50
49451;BME280;35336;48.400;10.886;2023-06-14T00:37:36;95781.75;;;13.82;62.23
49451;BME280;35336;48.400;10.886;2023-06-14T00:37:51;95773.22;;;13.73;62.31
49451;BME280;35336;48.400;10.886;2023-06-14T00:38:07;95787.56;;;13.79;62.31
49451;BME280;35336;48.400;10.886;2023-06-14T00:38:22;95766.34;;;13.65;62.72
49451;BME280;35336;48.400;10.886;2023-06-14T00:38:39;95784.28;;;13.77;62.67
49451;BME280;35336;48.400;10.886;2023-06-14T00:38:57;95785.72;;;13.79;62.66
49451;BME280;35336;48.400;10.886;2023-06-14T00:39:15;95787.31;;;13.80;62.57
49451;BME280;35336;48.400;10.886;2023-06-14T00:39:33;95777.31;;;13.76;62.28
49451;BME280;35336;48.400;10.886;2023-06-14T00:39:49;95773.22;;;13.73;62.19
49451;BME280;35336;48.400;10.886;2023-06-14T00:40:09;95777.91;;;13.78;62.46
49451;BME280;35336;48.400;10.886;2023-06-14T00:40:29;95780.38;;;13.79;62.11
49451;BME280;35336;48.400;10.886;2023-06-14T00:40:44;95785.00;;;13.84;62.23
49451;BME280;35336;48.400;10.886;2023-06-14T00:40:59;95780.13;;;13.81;62.10
49451;BME280;35336;48.400;10.886;2023-06-14T00:41:15;95765.91;;;13.69;62.27
49451;BME280;35336;48.400;10.886;2023-06-14T00:41:30;95776.50;;;13.75;62.40
49451;BME280;35336;48.400;10.886;2023-06-14T00:41:47;95770.41;;;13.68;62.23
49451;BME280;35336;48.400;10.886;2023-06-14T00:42:03;95784.88;;;13.79;62.07
49451;BME280;35336;48.400;10.886;2023-06-14T00:42:27;95776.72;;;13.74;62.34
49451;BME280;35336;48.400;10.886;2023-06-14T00:42:43;95761.78;;;13.66;62.16
49451;BME280;35336;48.400;10.886;2023-06-14T00:43:05;95776.59;;;13.80;62.03
49451;BME280;35336;48.400;10.886;2023-06-14T00:43:25;95772.53;;;13.78;62.35
49451;BME280;35336;48.400;10.886;2023-06-14T00:43:40;95786.78;;;13.90;62.35
49451;BME280;35336;48.400;10.886;2023-06-14T00:43:56;95783.50;;;13.88;62.23
49451;BME280;35336;48.400;10.886;2023-06-14T00:44:16;95784.31;;;13.89;62.21
49451;BME280;35336;48.400;10.886;2023-06-14T00:44:32;95784.31;;;13.89;62.08
49451;BME280;35336;48.400;10.886;2023-06-14T00:44:49;95791.56;;;13.88;62.17
49451;BME280;35336;48.400;10.886;2023-06-14T00:45:05;95784.31;;;13.89;61.92
49451;BME280;35336;48.400;10.886;2023-06-14T00:45:20;95789.47;;;13.90;62.05
49451;BME280;35336;48.400;10.886;2023-06-14T00:45:35;95793.31;;;13.94;61.79
49451;BME280;35336;48.400;10.886;2023-06-14T00:45:55;95784.31;;;13.89;61.55
49451;BME280;35336;48.400;10.886;2023-06-14T00:46:13;95771.25;;;13.80;61.45
49451;BME280;35336;48.400;10.886;2023-06-14T00:46:28;95789.91;;;13.87;61.60
49451;BME280;35336;48.400;10.886;2023-06-14T00:46:47;95787.47;;;13.86;61.47
49451;BME280;35336;48.400;10.886;2023-06-14T00:47:02;95770.22;;;13.81;61.76
49451;BME280;35336;48.400;10.886;2023-06-14T00:47:17;95785.16;;;13.89;61.48
49451;BME280;35336;48.400;10.886;2023-06-14T00:47:33;95789.69;;;13.89;61.35
49451;BME280;35336;48.400;10.886;2023-06-14T00:47:50;95779.09;;;13.82;61.56
49451;BME280;35336;48.400;10.886;2023-06-14T00:48:06;95779.88;;;13.82;61.41
49451;BME280;35336;48.400;10.886;2023-06-14T00:48:22;95783.50;;;13.88;61.53
49451;BME280;35336;48.400;10.886;2023-06-14T00:48:39;95783.50;;;13.88;61.42
49451;BME280;35336;48.400;10.886;2023-06-14T00:48:56;95787.59;;;13.91;61.46
49451;BME280;35336;48.400;10.886;2023-06-14T00:49:16;95784.66;;;13.92;61.50
49451;BME280;35336;48.400;10.886;2023-06-14T00:49:35;95792.16;;;13.90;61.58
49451;BME280;35336;48.400;10.886;2023-06-14T00:49:50;95786.63;;;13.85;61.68
49451;BME280;35336;48.400;10.886;2023-06-14T00:50:07;95780.38;;;13.79;61.66
49451;BME280;35336;48.400;10.886;2023-06-14T00:50:25;95762.38;;;13.68;61.45
49451;BME280;35336;48.400;10.886;2023-06-14T00:50:41;95782.22;;;13.79;61.49
49451;BME280;35336;48.400;10.886;2023-06-14T00:50:59;95791.53;;;13.76;61.72
49451;BME280;35336;48.400;10.886;2023-06-14T00:51:17;95766.78;;;13.62;61.62
49451;BME280;35336;48.400;10.886;2023-06-14T00:51:35;95782.19;;;13.67;62.24
49451;BME280;35336;48.400;10.886;2023-06-14T00:51:50;95775.91;;;13.61;62.25
49451;BME280;35336;48.400;10.886;2023-06-14T00:52:06;95788.38;;;13.68;62.19
49451;BME280;35336;48.400;10.886;2023-06-14T00:52:24;95778.94;;;13.65;62.07
49451;BME280;35336;48.400;10.886;2023-06-14T00:52:40;95792.09;;;13.66;62.34
49451;BME280;35336;48.400;10.886;2023-06-14T00:52:56;95782.19;;;13.67;62.23
49451;BME280;35336;48.400;10.886;2023-06-14T00:53:12;95784.66;;;13.69;62.53
49451;BME280;35336;48.400;10.886;2023-06-14T00:53:28;95784.28;;;13.65;62.41
49451;BME280;35336;48.400;10.886;2023-06-14T00:53:44;95786.13;;;13.64;62.37
49451;BME280;35336;48.400;10.886;2023-06-14T00:54:00;95782.41;;;13.65;62.08
49451;BME280;35336;48.400;10.886;2023-06-14T00:54:15;95785.91;;;13.66;62.08
49451;BME280;35336;48.400;10.886;2023-06-14T00:54:30;95790.00;;;13.69;62.09
49451;BME280;35336;48.400;10.886;2023-06-14T00:54:46;95784.66;;;13.69;61.69
49451;BME280;35336;48.400;10.886;2023-06-14T00:55:01;95785.22;;;13.71;61.90
49451;BME280;35336;48.400;10.886;2023-06-14T00:55:17;95789.28;;;13.73;61.62
49451;BME280;35336;48.400;10.886;2023-06-14T00:55:33;95782.09;;;13.74;61.43
49451;BME280;35336;48.400;10.886;2023-06-14T00:55:48;95781.72;;;13.70;61.36
49451;BME280;35336;48.400;10.886;2023-06-14T00:56:04;95783.13;;;13.73;61.41
49451;BME280;35336;48.400;10.886;2023-06-14T00:56:19;95782.53;;;13.71;61.49
49451;BME280;35336;48.400;10.886;2023-06-14T00:56:37;95784.66;;;13.69;61.26
49451;BME280;35336;48.400;10.886;2023-06-14T00:56:55;95778.69;;;13.66;61.57
49451;BME280;35336;48.400;10.886;2023-06-14T00:57:14;95788.59;;;13.66;61.56
49451;BME280;35336;48.400;10.886;2023-06-14T00:57:29;95780.78;;;13.64;61.54
49451;BME280;35336;48.400;10.886;2023-06-14T00:57:47;95760.59;;;13.50;61.45
49451;BME280;35336;48.400;10.886;2023-06-14T00:58:03;95773.66;;;13.58;61.50
49451;BME280;35336;48.400;10.886;2023-06-14T00:58:19;95776.22;;;13.53;61.51
49451;BME280;35336;48.400;10.886;2023-06-14T00:58:36;95778.44;;;13.56;61.29
49451;BME280;35336;48.400;10.886;2023-06-14T00:58:52;95781.69;;;13.58;61.62
49451;BME280;35336;48.400;10.886;2023-06-14T00:59:07;95766.88;;;13.44;61.03
49451;BME280;35336;48.400;10.886;2023-06-14T00:59:25;95783.22;;;13.54;61.18
49451;BME280;35336;48.400;10.886;2023-06-14T00:59:46;95778.91;;;13.53;61.17
49451;BME280;35336;48.400;10.886;2023-06-14T01:00:01;95778.66;;;13.55;61.59
49451;BME280;35336;48.400;10.886;2023-06-14T01:00:16;95785.44;;;13.57;61.53
49451;BME280;35336;48.400;10.886;2023-06-14T01:00:32;95784.63;;;13.57;61.21
49451;BME280;35336;48.400;10.886;2023-06-14T01:00:47;95776.22;;;13.53;61.52
49451;BME280;35336;48.400;10.886;2023-06-14T01:01:04;95782.16;;;13.55;61.57
49451;BME280;35336;48.400;10.886;2023-06-14T01:01:20;95780.53;;;13.54;61.38
49451;BME280;35336;48.400;10.886;2023-06-14T01:01:35;95781.09;;;13.56;61.65
49451;BME280;35336;48.400;10.886;2023-06-14T01:01:53;95784.81;;;13.55;61.36
49451;BME280;35336;48.400;10.886;2023-06-14T01:02:11;95793.47;;;13.57;61.49
49451;BME280;35336;48.400;10.886;2023-06-14T01:02:29;95769.47;;;13.50;61.32
49451;BME280;35336;48.400;10.886;2023-06-14T01:02:44;95782.75;;;13.57;61.22
49451;BME280;35336;48.400;10.886;2023-06-14T01:02:59;95785.19;;;13.59;60.69
49451;BME280;35336;48.400;10.886;2023-06-14T01:03:17;95781.94;;;13.57;61.02
49451;BME280;35336;48.400;10.886;2023-06-14T01:03:34;95770.50;;;13.49;60.76
49451;BME280;35336;48.400;10.886;2023-06-14T01:03:50;95780.66;;;13.59;60.91
49451;BME280;35336;48.400;10.886;2023-06-14T01:04:05;95778.91;;;13.53;60.97
49451;BME280;35336;48.400;10.886;2023-06-14T01:04:20;95779.47;;;13.55;61.14
49451;BME280;35336;48.400;10.886;2023-06-14T01:04:36;95779.94;;;13.52;61.40
49451;BME280;35336;48.400;10.886;2023-06-14T01:04:52;95784.03;;;13.55;61.39
49451;BME280;35336;48.400;10.886;2023-06-14T01:05:09;95777.34;;;13.45;61.09
49451;BME280;35336;48.400;10.886;2023-06-14T01:05:25;95776.31;;;13.46;60.83
49451;BME280;35336;48.400;10.886;2023-06-14T01:05:40;95789.47;;;13.48;61.08
49451;BME280;35336;48.400;10.886;2023-06-14T01:06:22;95787.84;;;13.47;61.04
49451;BME280;35336;48.400;10.886;2023-06-14T01:06:58;95786.22;;;13.46;61.62
49451;BME280;35336;48.400;10.886;2023-06-14T01:11:26;95786.06;;;13.41;61.48
49451;BME280;35336;48.400;10.886;2023-06-14T01:12:17;95786.94;;;13.34;61.45
49451;BME280;35336;48.400;10.886;2023-06-14T01:12:52;95794.63;;;13.31;62.17
49451;BME280;35336;48.400;10.886;2023-06-14T01:13:33;95789.38;;;13.24;61.63
49451;BME280;35336;48.400;10.886;2023-06-14T01:13:49;95771.38;;;13.13;61.94
49451;BME280;35336;48.400;10.886;2023-06-14T01:14:07;95789.38;;;13.24;62.24
49451;BME280;35336;48.400;10.886;2023-06-14T01:14:27;95782.38;;;13.23;62.28
49451;BME280;35336;48.400;10.886;2023-06-14T01:14:44;95782.22;;;13.18;62.49
49451;BME280;35336;48.400;10.886;2023-06-14T01:15:04;95780.81;;;13.15;62.65
49451;BME280;35336;48.400;10.886;2023-06-14T01:15:21;95773.34;;;13.06;62.69
49451;BME280;35336;48.400;10.886;2023-06-14T01:15:39;95785.81;;;13.12;62.83
49451;BME280;35336;48.400;10.886;2023-06-14T01:15:56;95788.13;;;13.08;62.83
49451;BME280;35336;48.400;10.886;2023-06-14T01:16:11;95787.91;;;13.10;62.70
49451;BME280;35336;48.400;10.886;2023-06-14T01:16:30;95790.34;;;13.11;63.14
49451;BME280;35336;48.400;10.886;2023-06-14T01:16:46;95781.50;;;13.11;62.90
49451;BME280;35336;48.400;10.886;2023-06-14T01:17:07;95783.72;;;13.14;62.91
49451;BME280;35336;48.400;10.886;2023-06-14T01:17:23;95782.94;;;13.13;63.11
49451;BME280;35336;48.400;10.886;2023-06-14T01:17:45;95782.69;;;13.15;62.70
49451;BME280;35336;48.400;10.886;2023-06-14T01:18:03;95771.25;;;13.08;63.02
49451;BME280;35336;48.400;10.886;2023-06-14T01:18:19;95781.06;;;13.14;62.98
49451;BME280;35336;48.400;10.886;2023-06-14T01:18:34;95790.50;;;13.16;63.06
49451;BME280;35336;48.400;10.886;2023-06-14T01:18:52;95790.25;;;13.18;63.37
49451;BME280;35336;48.400;10.886;2023-06-14T01:19:10;95781.06;;;13.14;62.87
49451;BME280;35336;48.400;10.886;2023-06-14T01:19:27;95785.97;;;13.17;63.21
49451;BME280;35336;48.400;10.886;2023-06-14T01:19:45;95781.66;;;13.16;62.98
49451;BME280;35336;48.400;10.886;2023-06-14T01:20:03;95782.00;;;13.19;63.20
49451;BME280;35336;48.400;10.886;2023-06-14T01:20:21;95783.66;;;13.21;62.68
49451;BME280;35336;48.400;10.886;2023-06-14T01:20:36;95767.66;;;13.14;62.91
49451;BME280;35336;48.400;10.886;2023-06-14T01:20:54;95781.91;;;13.26;62.77
49451;BME280;35336;48.400;10.886;2023-06-14T01:21:25;95778.19;;;13.27;62.40
49451;BME280;35336;48.400;10.886;2023-06-14T01:21:41;95782.28;;;13.30;62.44
49451;BME280;35336;48.400;10.886;2023-06-14T01:21:56;95762.59;;;13.24;62.32
49451;BME280;35336;48.400;10.886;2023-06-14T01:22:12;95780.56;;;13.35;62.62
49451;BME280;35336;48.400;10.886;2023-06-14T01:22:27;95780.19;;;13.32;62.17
49451;BME280;35336;48.400;10.886;2023-06-14T01:22:58;95779.97;;;13.33;62.48
49451;BME280;35336;48.400;10.886;2023-06-14T01:23:13;95784.28;;;13.34;62.63
49451;BME280;35336;48.400;10.886;2023-06-14T01:23:28;95781.47;;;13.29;62.66
49451;BME280;35336;48.400;10.886;2023-06-14T01:23:46;95775.31;;;13.29;62.60
49451;BME280;35336;48.400;10.886;2023-06-14T01:24:01;95777.50;;;13.32;62.71
49451;BME280;35336;48.400;10.886;2023-06-14T01:24:17;95773.19;;;13.31;62.66
49451;BME280;35336;48.400;10.886;2023-06-14T01:24:32;95781.09;;;13.26;62.92
49451;BME280;35336;48.400;10.886;2023-06-14T01:24:49;95778.31;;;13.21;63.08
49451;BME280;35336;48.400;10.886;2023-06-14T01:25:05;95786.81;;;13.29;62.96
49451;BME280;35336;48.400;10.886;2023-06-14T01:25:22;95784.94;;;13.30;62.72
49451;BME280;35336;48.400;10.886;2023-06-14T01:25:38;95786.22;;;13.27;62.74
49451;BME280;35336;48.400;10.886;2023-06-14T01:25:55;95775.81;;;13.19;62.80
49451;BME280;35336;48.400;10.886;2023-06-14T01:26:13;95782.00;;;13.19;63.20
49451;BME280;35336;48.400;10.886;2023-06-14T01:26:30;95778.75;;;13.17;63.18
49451;BME280;35336;48.400;10.886;2023-06-14T01:26:46;95775.69;;;13.14;63.31
49451;BME280;35336;48.400;10.886;2023-06-14T01:27:02;95786.53;;;13.19;63.38
49451;BME280;35336;48.400;10.886;2023-06-14T01:27:18;95788.19;;;13.20;63.15
49451;BME280;35336;48.400;10.886;2023-06-14T01:27:34;95781.19;;;13.19;63.23
49451;BME280;35336;48.400;10.886;2023-06-14T01:27:53;95774.53;;;13.10;63.49
49451;BME280;35336;48.400;10.886;2023-06-14T01:28:11;95785.38;;;13.15;63.07
49451;BME280;35336;48.400;10.886;2023-06-14T01:28:29;95779.41;;;13.13;63.39
49451;BME280;35336;48.400;10.886;2023-06-14T01:28:45;95778.97;;;13.16;63.09
49451;BME280;35336;48.400;10.886;2023-06-14T01:29:01;95779.09;;;13.21;62.95
49451;BME280;35336;48.400;10.886;2023-06-14T01:29:16;95783.66;;;13.21;62.89
49451;BME280;35336;48.400;10.886;2023-06-14T01:29:32;95779.34;;;13.19;63.12
49451;BME280;35336;48.400;10.886;2023-06-14T01:29:48;95781.78;;;13.21;62.93
49451;BME280;35336;48.400;10.886;2023-06-14T01:30:04;95776.31;;;13.16;62.95
49451;BME280;35336;48.400;10.886;2023-06-14T01:30:23;95782.81;;;13.20;62.89
49451;BME280;35336;48.400;10.886;2023-06-14T01:30:41;95785.72;;;13.18;62.97
49451;BME280;35336;48.400;10.886;2023-06-14T01:30:57;95777.56;;;13.13;62.77
49451;BME280;35336;48.400;10.886;2023-06-14T01:31:17;95778.81;;;13.11;63.19
49451;BME280;35336;48.400;10.886;2023-06-14T01:31:34;95776.00;;;13.06;63.54
49451;BME280;35336;48.400;10.886;2023-06-14T01:31:50;95785.81;;;13.12;63.26
49451;BME280;35336;48.400;10.886;2023-06-14T01:32:06;95778.00;;;13.10;63.43
49451;BME280;35336;48.400;10.886;2023-06-14T01:32:24;95777.56;;;13.13;63.12
49451;BME280;35336;48.400;10.886;2023-06-14T01:32:41;95773.47;;;13.11;63.55
49451;BME280;35336;48.400;10.886;2023-06-14T01:32:59;95775.09;;;13.12;63.12
49451;BME280;35336;48.400;10.886;2023-06-14T01:33:17;95780.03;;;13.15;63.04
49451;BME280;35336;48.400;10.886;2023-06-14T01:33:34;95783.13;;;13.12;63.40